sensor_id;sensor_type;location;lat;lon;timestamp;P1;durP1;ratioP1;P2;durP2;ratioP2
71606;SDS011;60641;53.556;9.914;2023-12-07T00:00:17;63.70;;;26.00;;
71606;SDS011;60641;53.556;9.914;2023-12-07T00:03:04;65.00;;;26.70;;
71606;SDS011;60641;53.556;9.914;2023-12-07T00:05:33;66.30;;;27.50;;
71606;SDS011;60641;53.556;9.914;2023-12-07T00:07:59;65.90;;;27.00;;
71606;SDS011;60641;53.556;9.914;2023-12-07T00:10:26;69.20;;;27.40;;
71606;SDS011;60641;53.556;9.914;2023-12-07T00:12:52;68.30;;;27.70;;
71606;SDS011;60641;53.556;9.914;2023-12-07T00:15:18;63.20;;;26.90;;
71606;SDS011;60641;53.556;9.914;2023-12-07T00:17:45;69.40;;;27.20;;
71606;SDS011;60641;53.556;9.914;2023-12-07T00:20:11;64.20;;;25.00;;
71606;SDS011;60641;53.556;9.914;2023-12-07T00:22:38;65.60;;;27.00;;
71606;SDS011;60641;53.556;9.914;2023-12-07T00:25:04;66.30;;;26.80;;
71606;SDS011;60641;53.556;9.914;2023-12-07T00:27:31;67.70;;;26.90;;
71606;SDS011;60641;53.556;9.914;2023-12-07T00:29:58;68.10;;;26.70;;
71606;SDS011;60641;53.556;9.914;2023-12-07T00:32:25;64.00;;;26.10;;
71606;SDS011;60641;53.556;9.914;2023-12-07T00:34:53;67.40;;;27.30;;
71606;SDS011;60641;53.556;9.914;2023-12-07T00:37:19;65.80;;;26.30;;
71606;SDS011;60641;53.556;9.914;2023-12-07T00:39:46;64.30;;;26.80;;
71606;SDS011;60641;53.556;9.914;2023-12-07T00:42:12;65.10;;;25.40;;
71606;SDS011;60641;53.556;9.914;2023-12-07T00:44:42;64.50;;;26.10;;
71606;SDS011;60641;53.556;9.914;2023-12-07T00:47:08;65.60;;;25.50;;
71606;SDS011;60641;53.556;9.914;2023-12-07T00:49:37;64.20;;;26.50;;
71606;SDS011;60641;53.556;9.914;2023-12-07T00:52:05;65.90;;;27.40;;
71606;SDS011;60641;53.556;9.914;2023-12-07T00:54:32;63.40;;;24.90;;
71606;SDS011;60641;53.556;9.914;2023-12-07T00:56:58;64.10;;;26.00;;
71606;SDS011;60641;53.556;9.914;2023-12-07T00:59:25;59.60;;;24.50;;
71606;SDS011;60641;53.556;9.914;2023-12-07T01:01:51;63.30;;;25.60;;
71606;SDS011;60641;53.556;9.914;2023-12-07T01:04:17;63.30;;;26.20;;
71606;SDS011;60641;53.556;9.914;2023-12-07T01:06:44;60.20;;;25.40;;
71606;SDS011;60641;53.556;9.914;2023-12-07T01:09:10;61.80;;;25.10;;
71606;SDS011;60641;53.556;9.914;2023-12-07T01:11:39;59.20;;;24.50;;
71606;SDS011;60641;53.556;9.914;2023-12-07T01:14:07;61.20;;;24.10;;
71606;SDS011;60641;53.556;9.914;2023-12-07T01:16:33;64.20;;;24.70;;
71606;SDS011;60641;53.556;9.914;2023-12-07T01:18:59;60.90;;;24.70;;
71606;SDS011;60641;53.556;9.914;2023-12-07T01:21:26;56.30;;;24.30;;
71606;SDS011;60641;53.556;9.914;2023-12-07T01:23:52;63.10;;;24.60;;
71606;SDS011;60641;53.556;9.914;2023-12-07T01:26:19;62.30;;;25.10;;
71606;SDS011;60641;53.556;9.914;2023-12-07T01:28:45;57.70;;;23.50;;
71606;SDS011;60641;53.556;9.914;2023-12-07T01:31:12;60.60;;;23.80;;
71606;SDS011;60641;53.556;9.914;2023-12-07T01:33:38;59.20;;;23.70;;
71606;SDS011;60641;53.556;9.914;2023-12-07T01:36:05;58.00;;;23.90;;
71606;SDS011;60641;53.556;9.914;2023-12-07T01:38:31;59.60;;;24.20;;
71606;SDS011;60641;53.556;9.914;2023-12-07T01:40:58;57.30;;;23.30;;
71606;SDS011;60641;53.556;9.914;2023-12-07T01:43:24;57.30;;;23.70;;
71606;SDS011;60641;53.556;9.914;2023-12-07T01:45:51;56.10;;;23.80;;
71606;SDS011;60641;53.556;9.914;2023-12-07T01:48:20;55.70;;;22.80;;
71606;SDS011;60641;53.556;9.914;2023-12-07T01:50:47;54.50;;;22.80;;
71606;SDS011;60641;53.556;9.914;2023-12-07T01:53:13;54.40;;;22.40;;
71606;SDS011;60641;53.556;9.914;2023-12-07T01:55:41;50.90;;;21.60;;
71606;SDS011;60641;53.556;9.914;2023-12-07T01:58:08;53.90;;;22.20;;
71606;SDS011;60641;53.556;9.914;2023-12-07T02:00:34;52.80;;;22.20;;
71606;SDS011;60641;53.556;9.914;2023-12-07T02:03:02;51.40;;;22.50;;
71606;SDS011;60641;53.556;9.914;2023-12-07T02:05:30;53.70;;;22.80;;
71606;SDS011;60641;53.556;9.914;2023-12-07T02:07:57;53.90;;;21.50;;
71606;SDS011;60641;53.556;9.914;2023-12-07T02:10:24;49.70;;;21.40;;
71606;SDS011;60641;53.556;9.914;2023-12-07T02:12:51;45.60;;;20.90;;
71606;SDS011;60641;53.556;9.914;2023-12-07T02:15:19;51.40;;;21.70;;
71606;SDS011;60641;53.556;9.914;2023-12-07T02:20:39;45.20;;;19.60;;
71606;SDS011;60641;53.556;9.914;2023-12-07T02:23:10;47.30;;;21.00;;
71606;SDS011;60641;53.556;9.914;2023-12-07T02:25:41;46.50;;;20.70;;
71606;SDS011;60641;53.556;9.914;2023-12-07T02:28:11;47.40;;;20.80;;
71606;SDS011;60641;53.556;9.914;2023-12-07T02:30:37;45.30;;;20.20;;
71606;SDS011;60641;53.556;9.914;2023-12-07T02:33:04;47.50;;;21.80;;
71606;SDS011;60641;53.556;9.914;2023-12-07T02:35:31;48.30;;;21.80;;
71606;SDS011;60641;53.556;9.914;2023-12-07T02:37:58;48.90;;;20.30;;
71606;SDS011;60641;53.556;9.914;2023-12-07T02:40:26;47.10;;;20.70;;
71606;SDS011;60641;53.556;9.914;2023-12-07T02:42:54;47.40;;;21.40;;
71606;SDS011;60641;53.556;9.914;2023-12-07T02:45:21;46.90;;;20.60;;
71606;SDS011;60641;53.556;9.914;2023-12-07T02:47:48;50.30;;;22.10;;
71606;SDS011;60641;53.556;9.914;2023-12-07T02:50:15;47.40;;;21.60;;
71606;SDS011;60641;53.556;9.914;2023-12-07T02:52:41;48.80;;;22.00;;
71606;SDS011;60641;53.556;9.914;2023-12-07T02:55:08;51.80;;;22.40;;
71606;SDS011;60641;53.556;9.914;2023-12-07T02:57:35;48.50;;;21.40;;
71606;SDS011;60641;53.556;9.914;2023-12-07T03:00:05;47.50;;;21.80;;
71606;SDS011;60641;53.556;9.914;2023-12-07T03:02:35;45.20;;;20.30;;
71606;SDS011;60641;53.556;9.914;2023-12-07T03:05:02;48.40;;;20.90;;
71606;SDS011;60641;53.556;9.914;2023-12-07T03:07:29;39.30;;;19.60;;
71606;SDS011;60641;53.556;9.914;2023-12-07T03:09:56;44.00;;;19.60;;
71606;SDS011;60641;53.556;9.914;2023-12-07T03:12:22;43.00;;;19.40;;
71606;SDS011;60641;53.556;9.914;2023-12-07T03:14:51;42.60;;;20.00;;
71606;SDS011;60641;53.556;9.914;2023-12-07T03:17:18;42.50;;;19.50;;
71606;SDS011;60641;53.556;9.914;2023-12-07T03:19:45;40.20;;;19.00;;
71606;SDS011;60641;53.556;9.914;2023-12-07T03:22:12;43.10;;;19.40;;
71606;SDS011;60641;53.556;9.914;2023-12-07T03:24:40;43.10;;;19.50;;
71606;SDS011;60641;53.556;9.914;2023-12-07T03:27:10;41.00;;;19.80;;
71606;SDS011;60641;53.556;9.914;2023-12-07T03:29:36;40.10;;;18.90;;
71606;SDS011;60641;53.556;9.914;2023-12-07T03:32:02;40.60;;;19.80;;
71606;SDS011;60641;53.556;9.914;2023-12-07T03:34:29;42.10;;;19.20;;
71606;SDS011;60641;53.556;9.914;2023-12-07T03:36:55;43.40;;;18.10;;
71606;SDS011;60641;53.556;9.914;2023-12-07T03:39:22;42.40;;;19.90;;
71606;SDS011;60641;53.556;9.914;2023-12-07T03:41:49;40.10;;;18.90;;
71606;SDS011;60641;53.556;9.914;2023-12-07T03:44:15;37.30;;;18.50;;
71606;SDS011;60641;53.556;9.914;2023-12-07T03:46:42;40.60;;;19.10;;
71606;SDS011;60641;53.556;9.914;2023-12-07T03:49:08;42.70;;;19.80;;
71606;SDS011;60641;53.556;9.914;2023-12-07T03:51:35;39.40;;;19.00;;
71606;SDS011;60641;53.556;9.914;2023-12-07T03:54:03;42.20;;;19.60;;
71606;SDS011;60641;53.556;9.914;2023-12-07T03:56:30;37.20;;;18.70;;
71606;SDS011;60641;53.556;9.914;2023-12-07T03:58:57;40.00;;;19.30;;
71606;SDS011;60641;53.556;9.914;2023-12-07T04:01:24;39.00;;;17.70;;
71606;SDS011;60641;53.556;9.914;2023-12-07T04:03:52;39.80;;;19.00;;
71606;SDS011;60641;53.556;9.914;2023-12-07T04:06:19;40.80;;;19.20;;
71606;SDS011;60641;53.556;9.914;2023-12-07T04:08:46;39.20;;;18.50;;
71606;SDS011;60641;53.556;9.914;2023-12-07T04:11:13;42.30;;;19.90;;
71606;SDS011;60641;53.556;9.914;2023-12-07T04:13:40;41.10;;;19.40;;
71606;SDS011;60641;53.556;9.914;2023-12-07T04:16:08;38.50;;;18.60;;
71606;SDS011;60641;53.556;9.914;2023-12-07T04:18:35;38.20;;;17.80;;
71606;SDS011;60641;53.556;9.914;2023-12-07T04:21:02;36.30;;;17.50;;
71606;SDS011;60641;53.556;9.914;2023-12-07T04:23:29;40.10;;;18.20;;
71606;SDS011;60641;53.556;9.914;2023-12-07T04:25:55;37.50;;;18.40;;
71606;SDS011;60641;53.556;9.914;2023-12-07T04:28:21;36.80;;;18.10;;
71606;SDS011;60641;53.556;9.914;2023-12-07T04:30:48;40.40;;;18.40;;
71606;SDS011;60641;53.556;9.914;2023-12-07T04:33:14;42.70;;;19.50;;
71606;SDS011;60641;53.556;9.914;2023-12-07T04:35:41;42.30;;;18.90;;
71606;SDS011;60641;53.556;9.914;2023-12-07T04:38:07;40.40;;;18.80;;
71606;SDS011;60641;53.556;9.914;2023-12-07T04:40:34;34.70;;;17.50;;
71606;SDS011;60641;53.556;9.914;2023-12-07T04:43:00;35.70;;;18.40;;
71606;SDS011;60641;53.556;9.914;2023-12-07T04:45:27;38.10;;;18.50;;
71606;SDS011;60641;53.556;9.914;2023-12-07T04:47:53;37.30;;;17.80;;
71606;SDS011;60641;53.556;9.914;2023-12-07T04:50:20;37.90;;;18.50;;
71606;SDS011;60641;53.556;9.914;2023-12-07T04:52:46;34.50;;;16.80;;
71606;SDS011;60641;53.556;9.914;2023-12-07T04:55:13;36.50;;;17.60;;
71606;SDS011;60641;53.556;9.914;2023-12-07T04:57:41;38.50;;;18.30;;
71606;SDS011;60641;53.556;9.914;2023-12-07T05:00:08;34.20;;;16.80;;
71606;SDS011;60641;53.556;9.914;2023-12-07T05:02:39;36.10;;;17.90;;
71606;SDS011;60641;53.556;9.914;2023-12-07T05:05:06;37.20;;;17.40;;
71606;SDS011;60641;53.556;9.914;2023-12-07T05:07:33;37.00;;;17.80;;
71606;SDS011;60641;53.556;9.914;2023-12-07T05:09:59;34.90;;;17.50;;
71606;SDS011;60641;53.556;9.914;2023-12-07T05:12:26;35.80;;;17.40;;
71606;SDS011;60641;53.556;9.914;2023-12-07T05:14:53;34.70;;;17.40;;
71606;SDS011;60641;53.556;9.914;2023-12-07T05:17:19;38.50;;;17.70;;
71606;SDS011;60641;53.556;9.914;2023-12-07T05:19:45;35.90;;;17.80;;
71606;SDS011;60641;53.556;9.914;2023-12-07T05:22:13;37.40;;;18.40;;
71606;SDS011;60641;53.556;9.914;2023-12-07T05:24:40;36.20;;;18.80;;
71606;SDS011;60641;53.556;9.914;2023-12-07T05:27:06;37.40;;;18.00;;
71606;SDS011;60641;53.556;9.914;2023-12-07T05:29:33;37.90;;;18.80;;
71606;SDS011;60641;53.556;9.914;2023-12-07T05:31:59;37.70;;;18.50;;
71606;SDS011;60641;53.556;9.914;2023-12-07T05:34:26;37.00;;;18.60;;
71606;SDS011;60641;53.556;9.914;2023-12-07T05:36:53;36.30;;;18.40;;
71606;SDS011;60641;53.556;9.914;2023-12-07T05:39:19;35.50;;;18.30;;
71606;SDS011;60641;53.556;9.914;2023-12-07T05:41:47;36.60;;;19.10;;
71606;SDS011;60641;53.556;9.914;2023-12-07T05:44:13;35.60;;;18.30;;
71606;SDS011;60641;53.556;9.914;2023-12-07T05:46:40;35.20;;;17.70;;
71606;SDS011;60641;53.556;9.914;2023-12-07T05:49:10;32.80;;;18.40;;
71606;SDS011;60641;53.556;9.914;2023-12-07T05:51:36;35.30;;;18.70;;
71606;SDS011;60641;53.556;9.914;2023-12-07T05:54:03;34.70;;;18.40;;
71606;SDS011;60641;53.556;9.914;2023-12-07T05:56:29;35.90;;;19.20;;
71606;SDS011;60641;53.556;9.914;2023-12-07T05:58:58;35.90;;;19.10;;
71606;SDS011;60641;53.556;9.914;2023-12-07T06:01:24;38.40;;;19.40;;
71606;SDS011;60641;53.556;9.914;2023-12-07T06:03:50;37.80;;;18.60;;
71606;SDS011;60641;53.556;9.914;2023-12-07T06:06:17;35.80;;;18.70;;
71606;SDS011;60641;53.556;9.914;2023-12-07T06:08:44;38.00;;;18.80;;
71606;SDS011;60641;53.556;9.914;2023-12-07T06:11:10;35.30;;;19.20;;
71606;SDS011;60641;53.556;9.914;2023-12-07T06:13:37;38.30;;;19.30;;
71606;SDS011;60641;53.556;9.914;2023-12-07T06:16:04;35.40;;;18.90;;
71606;SDS011;60641;53.556;9.914;2023-12-07T06:18:31;36.70;;;19.10;;
71606;SDS011;60641;53.556;9.914;2023-12-07T06:20:57;36.20;;;18.90;;
71606;SDS011;60641;53.556;9.914;2023-12-07T06:23:24;34.40;;;18.80;;
71606;SDS011;60641;53.556;9.914;2023-12-07T06:25:50;37.50;;;19.60;;
71606;SDS011;60641;53.556;9.914;2023-12-07T06:28:17;35.80;;;18.30;;
71606;SDS011;60641;53.556;9.914;2023-12-07T06:30:43;35.50;;;18.50;;
71606;SDS011;60641;53.556;9.914;2023-12-07T06:33:11;32.50;;;18.50;;
71606;SDS011;60641;53.556;9.914;2023-12-07T06:35:39;35.00;;;19.20;;
71606;SDS011;60641;53.556;9.914;2023-12-07T06:38:05;38.10;;;19.60;;
71606;SDS011;60641;53.556;9.914;2023-12-07T06:40:32;35.60;;;19.60;;
71606;SDS011;60641;53.556;9.914;2023-12-07T06:42:59;36.10;;;19.70;;
71606;SDS011;60641;53.556;9.914;2023-12-07T06:45:25;37.10;;;20.40;;
71606;SDS011;60641;53.556;9.914;2023-12-07T06:47:52;36.00;;;19.70;;
71606;SDS011;60641;53.556;9.914;2023-12-07T06:50:18;37.00;;;19.70;;
71606;SDS011;60641;53.556;9.914;2023-12-07T06:52:44;34.80;;;20.10;;
71606;SDS011;60641;53.556;9.914;2023-12-07T06:55:11;35.90;;;19.00;;
71606;SDS011;60641;53.556;9.914;2023-12-07T06:57:38;38.60;;;20.40;;
71606;SDS011;60641;53.556;9.914;2023-12-07T07:00:04;38.50;;;18.90;;
71606;SDS011;60641;53.556;9.914;2023-12-07T07:02:37;38.90;;;19.90;;
71606;SDS011;60641;53.556;9.914;2023-12-07T07:05:05;37.60;;;19.90;;
71606;SDS011;60641;53.556;9.914;2023-12-07T07:07:32;36.20;;;19.90;;
71606;SDS011;60641;53.556;9.914;2023-12-07T07:09:58;35.60;;;19.00;;
71606;SDS011;60641;53.556;9.914;2023-12-07T07:12:25;35.90;;;18.90;;
71606;SDS011;60641;53.556;9.914;2023-12-07T07:14:52;35.40;;;19.70;;
71606;SDS011;60641;53.556;9.914;2023-12-07T07:17:19;36.40;;;19.30;;
71606;SDS011;60641;53.556;9.914;2023-12-07T07:19:45;34.70;;;19.90;;
71606;SDS011;60641;53.556;9.914;2023-12-07T07:22:12;34.90;;;18.90;;
71606;SDS011;60641;53.556;9.914;2023-12-07T07:24:38;34.20;;;19.00;;
71606;SDS011;60641;53.556;9.914;2023-12-07T07:27:05;35.00;;;19.20;;
71606;SDS011;60641;53.556;9.914;2023-12-07T07:29:32;35.20;;;19.20;;
71606;SDS011;60641;53.556;9.914;2023-12-07T07:31:58;33.60;;;18.10;;
71606;SDS011;60641;53.556;9.914;2023-12-07T07:34:25;32.10;;;19.30;;
71606;SDS011;60641;53.556;9.914;2023-12-07T07:36:51;34.80;;;19.70;;
71606;SDS011;60641;53.556;9.914;2023-12-07T07:39:18;33.10;;;18.70;;
71606;SDS011;60641;53.556;9.914;2023-12-07T07:41:44;37.50;;;19.20;;
71606;SDS011;60641;53.556;9.914;2023-12-07T07:44:11;35.10;;;19.00;;
71606;SDS011;60641;53.556;9.914;2023-12-07T07:46:37;34.40;;;18.90;;
71606;SDS011;60641;53.556;9.914;2023-12-07T07:49:03;33.90;;;19.00;;
71606;SDS011;60641;53.556;9.914;2023-12-07T07:51:30;34.30;;;18.60;;
71606;SDS011;60641;53.556;9.914;2023-12-07T07:54:01;38.20;;;19.80;;
71606;SDS011;60641;53.556;9.914;2023-12-07T07:56:27;34.60;;;19.00;;
71606;SDS011;60641;53.556;9.914;2023-12-07T07:58:54;34.20;;;18.40;;
71606;SDS011;60641;53.556;9.914;2023-12-07T08:01:20;35.00;;;18.80;;
71606;SDS011;60641;53.556;9.914;2023-12-07T08:03:47;33.20;;;18.20;;
71606;SDS011;60641;53.556;9.914;2023-12-07T08:06:14;30.40;;;17.60;;
71606;SDS011;60641;53.556;9.914;2023-12-07T08:08:40;34.00;;;19.00;;
71606;SDS011;60641;53.556;9.914;2023-12-07T08:11:06;35.60;;;19.20;;
71606;SDS011;60641;53.556;9.914;2023-12-07T08:13:33;31.90;;;17.50;;
71606;SDS011;60641;53.556;9.914;2023-12-07T08:15:59;35.50;;;18.90;;
71606;SDS011;60641;53.556;9.914;2023-12-07T08:18:26;34.80;;;17.60;;
71606;SDS011;60641;53.556;9.914;2023-12-07T08:20:52;32.40;;;17.70;;
71606;SDS011;60641;53.556;9.914;2023-12-07T08:23:19;32.80;;;19.00;;
71606;SDS011;60641;53.556;9.914;2023-12-07T08:25:45;31.90;;;17.90;;
71606;SDS011;60641;53.556;9.914;2023-12-07T08:28:12;32.60;;;18.00;;
71606;SDS011;60641;53.556;9.914;2023-12-07T08:30:38;30.10;;;17.80;;
71606;SDS011;60641;53.556;9.914;2023-12-07T08:33:05;31.50;;;18.50;;
71606;SDS011;60641;53.556;9.914;2023-12-07T08:35:31;30.90;;;18.60;;
71606;SDS011;60641;53.556;9.914;2023-12-07T08:38:00;32.90;;;18.80;;
71606;SDS011;60641;53.556;9.914;2023-12-07T08:40:27;32.60;;;18.70;;
71606;SDS011;60641;53.556;9.914;2023-12-07T08:42:54;30.50;;;17.60;;
71606;SDS011;60641;53.556;9.914;2023-12-07T08:45:20;32.60;;;18.80;;
71606;SDS011;60641;53.556;9.914;2023-12-07T08:47:47;36.10;;;19.90;;
71606;SDS011;60641;53.556;9.914;2023-12-07T08:50:13;34.10;;;19.70;;
71606;SDS011;60641;53.556;9.914;2023-12-07T08:52:40;35.30;;;19.60;;
71606;SDS011;60641;53.556;9.914;2023-12-07T08:55:06;35.60;;;19.00;;
71606;SDS011;60641;53.556;9.914;2023-12-07T08:57:33;26.80;;;14.90;;
71606;SDS011;60641;53.556;9.914;2023-12-07T08:59:59;28.70;;;14.90;;
71606;SDS011;60641;53.556;9.914;2023-12-07T09:02:25;39.50;;;21.30;;
71606;SDS011;60641;53.556;9.914;2023-12-07T09:04:52;35.40;;;19.70;;
71606;SDS011;60641;53.556;9.914;2023-12-07T09:07:18;36.60;;;20.80;;
71606;SDS011;60641;53.556;9.914;2023-12-07T09:09:45;37.00;;;19.20;;
71606;SDS011;60641;53.556;9.914;2023-12-07T09:12:14;35.60;;;19.60;;
71606;SDS011;60641;53.556;9.914;2023-12-07T09:14:40;34.90;;;19.80;;
71606;SDS011;60641;53.556;9.914;2023-12-07T09:17:07;36.90;;;21.40;;
71606;SDS011;60641;53.556;9.914;2023-12-07T09:19:33;35.80;;;20.70;;
71606;SDS011;60641;53.556;9.914;2023-12-07T09:22:00;33.60;;;19.30;;
71606;SDS011;60641;53.556;9.914;2023-12-07T09:24:26;36.80;;;20.40;;
71606;SDS011;60641;53.556;9.914;2023-12-07T09:26:55;34.10;;;20.60;;
71606;SDS011;60641;53.556;9.914;2023-12-07T09:29:22;34.00;;;21.00;;
71606;SDS011;60641;53.556;9.914;2023-12-07T09:31:49;34.90;;;20.80;;
71606;SDS011;60641;53.556;9.914;2023-12-07T09:34:15;37.10;;;21.00;;
71606;SDS011;60641;53.556;9.914;2023-12-07T09:36:44;36.10;;;21.50;;
71606;SDS011;60641;53.556;9.914;2023-12-07T09:39:12;35.80;;;20.30;;
71606;SDS011;60641;53.556;9.914;2023-12-07T09:41:39;39.40;;;20.90;;
71606;SDS011;60641;53.556;9.914;2023-12-07T09:44:06;35.40;;;20.40;;
71606;SDS011;60641;53.556;9.914;2023-12-07T09:46:33;36.20;;;20.90;;
71606;SDS011;60641;53.556;9.914;2023-12-07T09:48:59;37.30;;;20.80;;
71606;SDS011;60641;53.556;9.914;2023-12-07T09:51:26;34.90;;;20.20;;
71606;SDS011;60641;53.556;9.914;2023-12-07T09:53:53;37.30;;;20.30;;
71606;SDS011;60641;53.556;9.914;2023-12-07T09:56:20;34.10;;;19.60;;
71606;SDS011;60641;53.556;9.914;2023-12-07T09:58:47;33.00;;;19.10;;
71606;SDS011;60641;53.556;9.914;2023-12-07T10:01:13;34.70;;;19.30;;
71606;SDS011;60641;53.556;9.914;2023-12-07T10:03:41;33.70;;;19.20;;
71606;SDS011;60641;53.556;9.914;2023-12-07T10:06:07;32.80;;;18.20;;
71606;SDS011;60641;53.556;9.914;2023-12-07T10:08:34;30.20;;;17.20;;
71606;SDS011;60641;53.556;9.914;2023-12-07T10:13:36;33.00;;;18.60;;
71606;SDS011;60641;53.556;9.914;2023-12-07T10:16:07;30.70;;;18.10;;
71606;SDS011;60641;53.556;9.914;2023-12-07T10:18:36;31.20;;;17.60;;
71606;SDS011;60641;53.556;9.914;2023-12-07T10:21:03;31.60;;;18.50;;
71606;SDS011;60641;53.556;9.914;2023-12-07T10:23:29;31.70;;;18.10;;
71606;SDS011;60641;53.556;9.914;2023-12-07T10:25:58;32.90;;;18.70;;
71606;SDS011;60641;53.556;9.914;2023-12-07T10:28:26;28.00;;;17.10;;
71606;SDS011;60641;53.556;9.914;2023-12-07T10:30:53;32.00;;;17.60;;
71606;SDS011;60641;53.556;9.914;2023-12-07T10:33:19;32.90;;;17.70;;
71606;SDS011;60641;53.556;9.914;2023-12-07T10:35:46;31.70;;;18.30;;
71606;SDS011;60641;53.556;9.914;2023-12-07T10:38:13;30.20;;;17.80;;
71606;SDS011;60641;53.556;9.914;2023-12-07T10:40:40;31.10;;;18.20;;
71606;SDS011;60641;53.556;9.914;2023-12-07T10:43:07;29.20;;;17.00;;
71606;SDS011;60641;53.556;9.914;2023-12-07T10:45:35;28.50;;;16.80;;
71606;SDS011;60641;53.556;9.914;2023-12-07T10:50:42;29.40;;;17.20;;
71606;SDS011;60641;53.556;9.914;2023-12-07T10:53:19;23.30;;;11.70;;
71606;SDS011;60641;53.556;9.914;2023-12-07T10:55:52;30.10;;;16.10;;
71606;SDS011;60641;53.556;9.914;2023-12-07T10:58:22;29.80;;;17.20;;
71606;SDS011;60641;53.556;9.914;2023-12-07T11:00:52;29.20;;;17.40;;
71606;SDS011;60641;53.556;9.914;2023-12-07T11:03:19;29.50;;;16.40;;
71606;SDS011;60641;53.556;9.914;2023-12-07T11:05:47;26.10;;;15.50;;
71606;SDS011;60641;53.556;9.914;2023-12-07T11:11:04;23.90;;;15.00;;
71606;SDS011;60641;53.556;9.914;2023-12-07T11:13:35;25.30;;;15.30;;
71606;SDS011;60641;53.556;9.914;2023-12-07T11:16:03;24.60;;;15.40;;
71606;SDS011;60641;53.556;9.914;2023-12-07T11:18:30;27.50;;;15.70;;
71606;SDS011;60641;53.556;9.914;2023-12-07T11:20:57;26.10;;;15.70;;
71606;SDS011;60641;53.556;9.914;2023-12-07T11:23:25;24.80;;;15.00;;
71606;SDS011;60641;53.556;9.914;2023-12-07T11:25:53;28.40;;;15.90;;
71606;SDS011;60641;53.556;9.914;2023-12-07T11:28:42;28.60;;;16.20;;
71606;SDS011;60641;53.556;9.914;2023-12-07T11:31:08;26.80;;;15.20;;
71606;SDS011;60641;53.556;9.914;2023-12-07T11:33:37;28.90;;;17.30;;
71606;SDS011;60641;53.556;9.914;2023-12-07T11:36:05;33.00;;;17.50;;
71606;SDS011;60641;53.556;9.914;2023-12-07T11:38:33;28.20;;;16.60;;
71606;SDS011;60641;53.556;9.914;2023-12-07T11:41:00;27.90;;;15.90;;
71606;SDS011;60641;53.556;9.914;2023-12-07T11:46:01;29.50;;;17.10;;
71606;SDS011;60641;53.556;9.914;2023-12-07T11:48:27;30.30;;;17.00;;
71606;SDS011;60641;53.556;9.914;2023-12-07T11:51:01;27.80;;;16.20;;
71606;SDS011;60641;53.556;9.914;2023-12-07T11:53:37;27.90;;;16.40;;
71606;SDS011;60641;53.556;9.914;2023-12-07T11:56:05;27.60;;;16.80;;
71606;SDS011;60641;53.556;9.914;2023-12-07T11:58:33;29.00;;;16.30;;
71606;SDS011;60641;53.556;9.914;2023-12-07T12:01:01;28.80;;;16.30;;
71606;SDS011;60641;53.556;9.914;2023-12-07T12:03:29;28.70;;;16.20;;
71606;SDS011;60641;53.556;9.914;2023-12-07T12:05:57;28.50;;;15.90;;
71606;SDS011;60641;53.556;9.914;2023-12-07T12:08:24;30.20;;;16.00;;
71606;SDS011;60641;53.556;9.914;2023-12-07T12:10:51;27.20;;;15.00;;
71606;SDS011;60641;53.556;9.914;2023-12-07T12:13:27;27.80;;;16.30;;
71606;SDS011;60641;53.556;9.914;2023-12-07T12:15:54;26.80;;;16.30;;
71606;SDS011;60641;53.556;9.914;2023-12-07T12:18:22;28.10;;;16.70;;
71606;SDS011;60641;53.556;9.914;2023-12-07T12:20:50;25.90;;;15.50;;
71606;SDS011;60641;53.556;9.914;2023-12-07T12:23:17;24.60;;;15.20;;
71606;SDS011;60641;53.556;9.914;2023-12-07T12:25:44;24.90;;;15.10;;
71606;SDS011;60641;53.556;9.914;2023-12-07T12:28:11;23.60;;;14.40;;
71606;SDS011;60641;53.556;9.914;2023-12-07T12:30:41;23.90;;;14.70;;
71606;SDS011;60641;53.556;9.914;2023-12-07T12:33:08;26.60;;;16.10;;
71606;SDS011;60641;53.556;9.914;2023-12-07T12:35:34;27.20;;;16.10;;
71606;SDS011;60641;53.556;9.914;2023-12-07T12:38:02;26.00;;;15.90;;
71606;SDS011;60641;53.556;9.914;2023-12-07T12:40:35;27.90;;;17.10;;
71606;SDS011;60641;53.556;9.914;2023-12-07T12:43:01;30.60;;;16.70;;
71606;SDS011;60641;53.556;9.914;2023-12-07T12:45:28;31.40;;;17.40;;
71606;SDS011;60641;53.556;9.914;2023-12-07T12:47:54;32.80;;;18.60;;
71606;SDS011;60641;53.556;9.914;2023-12-07T12:53:17;34.80;;;18.70;;
71606;SDS011;60641;53.556;9.914;2023-12-07T12:55:43;31.80;;;18.20;;
71606;SDS011;60641;53.556;9.914;2023-12-07T12:58:10;33.30;;;18.80;;
71606;SDS011;60641;53.556;9.914;2023-12-07T13:00:39;34.70;;;19.50;;
71606;SDS011;60641;53.556;9.914;2023-12-07T13:03:07;32.00;;;18.00;;
71606;SDS011;60641;53.556;9.914;2023-12-07T13:05:34;32.90;;;18.30;;
71606;SDS011;60641;53.556;9.914;2023-12-07T13:08:01;31.30;;;17.90;;
71606;SDS011;60641;53.556;9.914;2023-12-07T13:10:28;32.40;;;18.60;;
71606;SDS011;60641;53.556;9.914;2023-12-07T13:12:54;34.40;;;18.80;;
71606;SDS011;60641;53.556;9.914;2023-12-07T13:15:22;36.20;;;18.40;;
71606;SDS011;60641;53.556;9.914;2023-12-07T13:17:48;34.30;;;18.50;;
71606;SDS011;60641;53.556;9.914;2023-12-07T13:20:15;37.80;;;18.20;;
71606;SDS011;60641;53.556;9.914;2023-12-07T13:22:41;34.20;;;18.30;;
71606;SDS011;60641;53.556;9.914;2023-12-07T13:25:11;30.80;;;18.60;;
71606;SDS011;60641;53.556;9.914;2023-12-07T13:27:41;31.20;;;16.60;;
71606;SDS011;60641;53.556;9.914;2023-12-07T13:30:09;32.40;;;17.80;;
71606;SDS011;60641;53.556;9.914;2023-12-07T13:32:36;35.10;;;18.70;;
71606;SDS011;60641;53.556;9.914;2023-12-07T13:35:04;34.90;;;18.60;;
71606;SDS011;60641;53.556;9.914;2023-12-07T13:37:31;35.90;;;19.90;;
71606;SDS011;60641;53.556;9.914;2023-12-07T13:39:58;38.10;;;19.80;;
71606;SDS011;60641;53.556;9.914;2023-12-07T13:42:26;35.50;;;20.30;;
71606;SDS011;60641;53.556;9.914;2023-12-07T13:44:54;38.90;;;19.30;;
71606;SDS011;60641;53.556;9.914;2023-12-07T13:47:23;40.40;;;21.60;;
71606;SDS011;60641;53.556;9.914;2023-12-07T13:49:55;36.30;;;20.40;;
71606;SDS011;60641;53.556;9.914;2023-12-07T13:52:23;38.10;;;20.30;;
71606;SDS011;60641;53.556;9.914;2023-12-07T13:54:50;39.00;;;20.30;;
71606;SDS011;60641;53.556;9.914;2023-12-07T13:57:17;37.70;;;20.60;;
71606;SDS011;60641;53.556;9.914;2023-12-07T13:59:45;35.50;;;19.40;;
71606;SDS011;60641;53.556;9.914;2023-12-07T14:02:12;34.70;;;19.00;;
71606;SDS011;60641;53.556;9.914;2023-12-07T14:04:38;35.50;;;19.20;;
71606;SDS011;60641;53.556;9.914;2023-12-07T14:09:36;38.50;;;19.30;;
71606;SDS011;60641;53.556;9.914;2023-12-07T14:12:04;35.20;;;18.60;;
71606;SDS011;60641;53.556;9.914;2023-12-07T14:14:30;36.30;;;18.80;;
71606;SDS011;60641;53.556;9.914;2023-12-07T14:16:57;31.90;;;17.80;;
71606;SDS011;60641;53.556;9.914;2023-12-07T14:19:24;33.50;;;18.60;;
71606;SDS011;60641;53.556;9.914;2023-12-07T14:21:50;34.80;;;19.70;;
71606;SDS011;60641;53.556;9.914;2023-12-07T14:24:17;37.10;;;18.20;;
71606;SDS011;60641;53.556;9.914;2023-12-07T14:26:44;33.30;;;19.40;;
71606;SDS011;60641;53.556;9.914;2023-12-07T14:29:10;30.00;;;17.40;;
71606;SDS011;60641;53.556;9.914;2023-12-07T14:31:41;32.90;;;19.10;;
71606;SDS011;60641;53.556;9.914;2023-12-07T14:34:08;36.10;;;19.40;;
71606;SDS011;60641;53.556;9.914;2023-12-07T14:36:34;30.80;;;18.10;;
71606;SDS011;60641;53.556;9.914;2023-12-07T14:39:01;35.20;;;18.70;;